Time;durP1;ratioP1;P1;durP2;ratioP2;P2;SDS_P1;SDS_P2;PMS_P1;PMS_P2;Temp;Humidity;BMP_temperature;BMP_pressure;BME280_temperature;BME280_humidity;BME280_pressure;Samples;Min_cycle;Max_cycle;Signal;HPM_P1;HPM_P2
2023/07/17 00:00:42;;;;;;;4.93;2.35;;;;;;;20.48;89.59;100255.78;5087613;28;20028;-60
2023/07/17 00:03:08;;;;;;;7.15;2.17;;;;;;;20.38;90.42;100252.00;5088127;28;20028;-60
2023/07/17 00:05:33;;;;;;;4.75;2.40;;;;;;;20.46;90.83;100265.00;5087104;28;20032;-61
2023/07/17 00:07:59;;;;;;;3.70;2.00;;;;;;;20.44;91.56;100254.28;5087784;28;20024;-61
2023/07/17 00:10:24;;;;;;;7.10;2.25;;;;;;;20.38;91.45;100259.22;5086706;28;20042;-61
2023/07/17 00:12:50;;;;;;;6.38;2.40;;;;;;;20.32;90.77;100260.53;5086405;28;20039;-60
2023/07/17 00:15:15;;;;;;;5.15;2.20;;;;;;;20.34;90.91;100261.31;5086341;28;20081;-61
2023/07/17 00:17:41;;;;;;;5.68;2.20;;;;;;;20.32;91.11;100257.84;5085655;28;20470;-60
2023/07/17 00:20:10;;;;;;;5.13;2.40;;;;;;;20.31;91.38;100258.78;5084510;28;20035;-61
2023/07/17 00:22:35;;;;;;;6.53;2.20;;;;;;;20.33;90.75;100264.94;5085543;28;20056;-60
2023/07/17 00:25:00;;;;;;;5.25;3.25;;;;;;;20.30;90.57;100265.16;5086665;28;20024;-61
2023/07/17 00:27:26;;;;;;;4.00;1.98;;;;;;;20.31;90.77;100266.03;5086685;28;20442;-61
2023/07/17 00:29:52;;;;;;;8.20;2.42;;;;;;;20.32;90.81;100271.34;5086191;28;20035;-61
2023/07/17 00:32:17;;;;;;;5.72;2.30;;;;;;;20.33;90.27;100262.25;5087327;28;20067;-60
2023/07/17 00:34:43;;;;;;;4.80;2.35;;;;;;;20.34;90.95;100264.00;5087583;28;20432;-61
2023/07/17 00:37:09;;;;;;;5.90;2.50;;;;;;;20.37;90.89;100265.63;5084257;28;20023;-61
2023/07/17 00:39:35;;;;;;;5.63;1.98;;;;;;;20.36;90.01;100270.13;5087681;28;20027;-60
2023/07/17 00:42:01;;;;;;;4.32;2.22;;;;;;;20.37;89.39;100261.09;5087952;28;20024;-61
2023/07/17 00:44:28;;;;;;;6.60;2.20;;;;;;;20.41;89.29;100262.59;5086536;28;20039;-61
2023/07/17 00:46:54;;;;;;;4.45;2.30;;;;;;;20.35;88.89;100256.75;5084676;28;20027;-60
2023/07/17 00:49:25;;;;;;;6.88;2.40;;;;;;;20.37;88.98;100263.78;5085650;28;20035;-61
2023/07/17 00:51:52;;;;;;;7.13;2.10;;;;;;;20.40;88.46;100266.28;5085925;28;20024;-60
2023/07/17 00:54:19;;;;;;;8.05;2.38;;;;;;;20.41;88.39;100265.28;5085886;28;20490;-61
2023/07/17 00:56:46;;;;;;;4.90;2.20;;;;;;;20.41;87.81;100272.56;5088991;28;20024;-60
2023/07/17 00:59:12;;;;;;;6.63;2.10;;;;;;;20.36;87.41;100259.34;5090332;28;20028;-61
2023/07/17 01:01:39;;;;;;;5.60;1.77;;;;;;;20.43;87.60;100271.47;5090330;28;20371;-60
2023/07/17 01:04:06;;;;;;;6.57;1.92;;;;;;;20.42;87.09;100264.34;5078006;28;20491;-60
2023/07/17 01:06:31;;;;;;;5.18;2.00;;;;;;;20.42;86.51;100269.75;5071003;28;20020;-61
2023/07/17 01:08:57;;;;;;;4.45;2.10;;;;;;;20.41;86.19;100270.69;5085329;28;20024;-60
2023/07/17 01:11:23;;;;;;;4.55;2.17;;;;;;;20.42;86.87;100271.56;5090819;28;20123;-60
2023/07/17 01:13:51;;;;;;;5.50;2.30;;;;;;;20.39;87.37;100266.38;5090420;28;20126;-60
2023/07/17 01:16:16;;;;;;;5.47;1.92;;;;;;;20.37;87.72;100265.63;5089992;28;20698;-60
2023/07/17 01:18:42;;;;;;;4.45;2.10;;;;;;;20.36;87.03;100264.75;5089941;28;20060;-61
2023/07/17 01:21:16;;;;;;;6.07;2.28;;;;;;;20.38;87.37;100262.81;5089501;28;20834;-60
2023/07/17 01:23:42;;;;;;;5.65;2.03;;;;;;;20.39;87.08;100261.84;5088297;28;20024;-60
2023/07/17 01:26:25;;;;;;;3.58;2.08;;;;;;;20.35;86.89;100263.03;5089174;28;20028;-60
2023/07/17 01:28:51;;;;;;;3.40;2.00;;;;;;;20.37;86.76;100263.78;5070122;28;20028;-60
2023/07/17 01:31:16;;;;;;;5.90;2.03;;;;;;;20.38;86.77;100265.50;5071056;28;20028;-60
2023/07/17 01:33:42;;;;;;;4.85;1.90;;;;;;;20.38;86.73;100267.34;5090784;28;20028;-60
2023/07/17 01:36:07;;;;;;;3.63;1.45;;;;;;;20.35;86.60;100265.72;5090612;28;20036;-60
2023/07/17 01:38:33;;;;;;;5.68;1.98;;;;;;;20.33;86.67;100264.94;5090766;28;20122;-60
2023/07/17 01:40:59;;;;;;;2.80;1.90;;;;;;;20.31;86.74;100272.28;5089842;28;20058;-60
2023/07/17 01:43:24;;;;;;;3.72;1.77;;;;;;;20.31;86.46;100269.59;5090618;28;20380;-60
2023/07/17 01:45:50;;;;;;;5.20;2.30;;;;;;;20.32;87.14;100273.16;5090582;28;20032;-60
2023/07/17 01:48:17;;;;;;;4.30;2.10;;;;;;;20.31;87.13;100271.44;5075186;28;20086;-60
2023/07/17 01:50:44;;;;;;;3.55;1.88;;;;;;;20.31;87.34;100276.84;5078864;28;20023;-59
2023/07/17 01:53:09;;;;;;;4.18;2.20;;;;;;;20.28;86.42;100272.50;5090798;28;20024;-60
2023/07/17 01:55:35;;;;;;;3.72;1.98;;;;;;;20.30;85.80;100275.97;5089044;28;20472;-60
2023/07/17 01:58:00;;;;;;;5.93;2.42;;;;;;;20.30;85.07;100275.09;5071927;28;20085;-60
2023/07/17 02:00:26;;;;;;;3.80;2.20;;;;;;;20.34;85.22;100277.50;5069223;28;20085;-60
2023/07/17 02:02:51;;;;;;;3.45;2.10;;;;;;;20.35;84.56;100279.22;5082496;28;20559;-60
2023/07/17 02:05:17;;;;;;;9.02;2.65;;;;;;;20.31;84.73;100277.69;5088610;28;20180;-60
2023/07/17 02:07:43;;;;;;;5.50;2.33;;;;;;;20.30;85.20;100275.97;5087092;28;20115;-59
2023/07/17 02:10:10;;;;;;;5.53;2.10;;;;;;;20.31;85.69;100277.69;5088246;28;20495;-59
2023/07/17 02:12:35;;;;;;;4.95;1.67;;;;;;;20.29;85.88;100278.78;5087991;28;20031;-61
2023/07/17 02:15:01;;;;;;;5.88;2.15;;;;;;;20.24;85.88;100271.00;5087388;28;20643;-60
2023/07/17 02:17:26;;;;;;;5.22;2.08;;;;;;;20.21;85.00;100273.91;5086812;28;20028;-59
2023/07/17 02:19:52;;;;;;;5.88;2.58;;;;;;;20.27;84.17;100273.50;5087516;28;20468;-60
2023/07/17 02:22:17;;;;;;;4.57;1.65;;;;;;;20.29;84.67;100274.25;5075359;28;20575;-60
2023/07/17 02:24:43;;;;;;;4.32;2.17;;;;;;;20.36;84.85;100278.25;5087738;28;20444;-60
2023/07/17 02:27:08;;;;;;;6.25;2.20;;;;;;;20.42;84.92;100279.69;5088667;28;20034;-60
2023/07/17 02:29:34;;;;;;;4.13;2.03;;;;;;;20.40;84.49;100282.47;5087901;28;20526;-60
2023/07/17 02:31:59;;;;;;;5.68;2.30;;;;;;;20.41;84.56;100278.81;5089227;28;20082;-60
2023/07/17 02:34:25;;;;;;;5.05;2.15;;;;;;;20.40;84.56;100285.19;5087553;28;20566;-60
2023/07/17 02:36:52;;;;;;;4.85;2.15;;;;;;;20.37;84.07;100277.28;5089279;28;20035;-60
2023/07/17 02:39:18;;;;;;;6.22;2.28;;;;;;;20.45;84.21;100282.16;5088300;28;20036;-60
2023/07/17 02:41:44;;;;;;;5.72;1.98;;;;;;;20.35;84.26;100279.22;5089465;28;20114;-60
2023/07/17 02:44:09;;;;;;;4.97;2.05;;;;;;;20.39;84.30;100285.28;5088669;28;20024;-60
2023/07/17 02:46:35;;;;;;;4.53;2.33;;;;;;;20.30;85.31;100281.38;5089882;28;20029;-60
2023/07/17 02:49:00;;;;;;;4.05;2.08;;;;;;;20.27;85.08;100281.59;5089520;28;20027;-60
2023/07/17 02:51:25;;;;;;;5.45;2.20;;;;;;;20.32;85.06;100292.09;5088722;28;20108;-60
2023/07/17 02:53:51;;;;;;;6.85;2.00;;;;;;;20.31;85.23;100283.09;5088182;28;20027;-60
2023/07/17 02:56:16;;;;;;;5.55;2.10;;;;;;;20.29;85.12;100293.16;5088174;28;20032;-60
2023/07/17 02:58:43;;;;;;;6.13;2.90;;;;;;;20.27;85.48;100281.59;5087556;28;20032;-60
2023/07/17 03:01:11;;;;;;;4.35;2.10;;;;;;;20.24;85.59;100289.03;5088268;28;20847;-60
2023/07/17 03:03:37;;;;;;;15.50;2.95;;;;;;;20.21;85.80;100287.44;5087210;28;20036;-60
2023/07/17 03:06:04;;;;;;;6.70;2.30;;;;;;;20.21;85.30;100286.56;5086666;28;20530;-60
2023/07/17 03:08:29;;;;;;;4.78;2.17;;;;;;;20.19;85.36;100286.66;5086857;28;20469;-60
2023/07/17 03:10:55;;;;;;;3.65;2.15;;;;;;;20.22;85.88;100289.16;5087730;28;20055;-61
2023/07/17 03:13:20;;;;;;;5.72;2.28;;;;;;;20.20;85.79;100293.78;5087520;28;20028;-60
2023/07/17 03:15:48;;;;;;;3.90;1.60;;;;;;;20.17;85.80;100293.13;5086836;28;20408;-60
2023/07/17 03:18:14;;;;;;;12.43;2.85;;;;;;;20.16;86.40;100289.56;5087682;28;20035;-59
2023/07/17 03:20:43;;;;;;;25.10;3.15;;;;;;;20.13;86.07;100292.41;5088229;28;20423;-60
2023/07/17 03:23:09;;;;;;;5.47;2.65;;;;;;;20.12;86.66;100293.41;5073917;28;20020;-60
2023/07/17 03:25:35;;;;;;;4.63;3.08;;;;;;;20.11;85.99;100305.19;5089011;28;20036;-60
2023/07/17 03:28:01;;;;;;;5.65;2.40;;;;;;;20.04;86.12;100292.19;5089163;28;20031;-59
2023/07/17 03:30:27;;;;;;;5.40;2.42;;;;;;;19.98;86.08;100298.00;5088008;28;20418;-60
2023/07/17 03:32:52;;;;;;;6.35;2.13;;;;;;;20.00;86.31;100302.31;5069404;28;20029;-60
2023/07/17 03:35:17;;;;;;;6.95;2.30;;;;;;;19.99;87.07;100307.81;5077533;28;20111;-59
2023/07/17 03:37:43;;;;;;;5.25;2.05;;;;;;;19.97;86.96;100317.84;5088601;28;20031;-59
2023/07/17 03:40:10;;;;;;;4.57;2.50;;;;;;;19.91;87.63;100313.75;5088033;28;20028;-59
2023/07/17 03:42:36;;;;;;;6.93;1.95;;;;;;;19.90;87.41;100313.84;5085399;28;20118;-60
2023/07/17 03:45:01;;;;;;;4.68;1.83;;;;;;;19.83;87.37;100317.91;5088139;28;20107;-60
2023/07/17 03:47:27;;;;;;;3.95;2.03;;;;;;;19.76;87.83;100313.88;5086906;28;20020;-60
2023/07/17 03:49:52;;;;;;;5.28;2.20;;;;;;;19.73;88.07;100317.66;5086043;28;20028;-60
2023/07/17 03:52:17;;;;;;;4.93;2.40;;;;;;;19.70;88.22;100325.94;5084645;28;20115;-60
2023/07/17 03:54:43;;;;;;;4.43;2.42;;;;;;;19.65;88.96;100323.53;5084214;28;20053;-60
2023/07/17 03:57:08;;;;;;;6.65;2.30;;;;;;;19.64;89.25;100326.31;5084079;28;20055;-59
2023/07/17 03:59:47;;;;;;;5.68;2.25;;;;;;;19.58;90.02;100330.31;5084626;28;20107;-59
2023/07/17 04:02:13;;;;;;;5.43;2.78;;;;;;;19.58;89.87;100332.13;5085880;28;20352;-60
2023/07/17 04:04:38;;;;;;;5.00;2.40;;;;;;;19.54;90.16;100328.75;5059864;28;20041;-60
2023/07/17 04:07:04;;;;;;;5.68;2.10;;;;;;;19.55;90.31;100335.03;5064991;28;20143;-60
2023/07/17 04:09:29;;;;;;;5.47;2.30;;;;;;;19.53;90.27;100334.25;5065707;28;20495;-60
2023/07/17 04:11:55;;;;;;;4.82;2.20;;;;;;;19.51;89.97;100333.47;5064146;28;20078;-60
2023/07/17 04:14:20;;;;;;;5.72;2.40;;;;;;;19.49;90.36;100335.41;5065113;28;20815;-60
2023/07/17 04:16:46;;;;;;;5.22;2.53;;;;;;;19.49;90.64;100335.41;5065300;28;20078;-60
2023/07/17 04:19:11;;;;;;;6.05;2.28;;;;;;;19.49;91.30;100338.09;5066769;28;20025;-60
2023/07/17 04:21:36;;;;;;;6.63;2.58;;;;;;;19.48;90.99;100334.56;5058743;28;20039;-60
2023/07/17 04:24:02;;;;;;;9.18;2.60;;;;;;;19.49;90.87;100336.28;5047350;28;20025;-60
2023/07/17 04:26:27;;;;;;;6.10;2.13;;;;;;;19.51;91.27;100339.75;5059636;28;20496;-60
2023/07/17 04:28:53;;;;;;;7.85;3.00;;;;;;;19.52;91.36;100337.94;5067454;28;20032;-60
2023/07/17 04:31:18;;;;;;;7.10;2.80;;;;;;;19.52;90.73;100346.03;5061534;28;20417;-59
2023/07/17 04:33:44;;;;;;;5.38;2.33;;;;;;;19.54;91.10;100344.06;5066937;28;20807;-60
2023/07/17 04:36:09;;;;;;;9.02;2.55;;;;;;;19.56;91.04;100339.44;5047292;28;20047;-60
2023/07/17 04:38:35;;;;;;;5.13;2.25;;;;;;;19.59;90.92;100337.44;5067154;28;20121;-59
2023/07/17 04:41:00;;;;;;;5.38;2.05;;;;;;;19.63;91.08;100348.91;5066327;28;20024;-60
2023/07/17 04:43:25;;;;;;;6.30;2.50;;;;;;;19.67;91.00;100342.31;5066656;28;20025;-60
2023/07/17 04:45:51;;;;;;;7.25;2.70;;;;;;;19.70;90.93;100343.97;5066810;28;20104;-60
2023/07/17 04:48:16;;;;;;;6.32;2.28;;;;;;;19.72;90.25;100344.75;5065421;28;20515;-60
2023/07/17 04:50:44;;;;;;;8.23;2.40;;;;;;;19.77;89.92;100348.84;5064646;28;20110;-60
2023/07/17 04:53:10;;;;;;;7.55;2.58;;;;;;;19.83;89.76;100355.69;5044543;28;20025;-61
2023/07/17 04:55:35;;;;;;;7.03;2.40;;;;;;;19.88;89.37;100349.03;5057805;28;20505;-60
2023/07/17 04:58:01;;;;;;;3.60;2.40;;;;;;;19.96;88.35;100349.41;5045218;28;20111;-60
2023/07/17 05:00:26;;;;;;;6.28;2.25;;;;;;;20.02;88.57;100349.00;5053829;28;20029;-60
2023/07/17 05:02:52;;;;;;;9.02;2.47;;;;;;;20.13;88.24;100356.41;5056761;28;20033;-60
2023/07/17 05:05:18;;;;;;;12.30;4.35;;;;;;;20.20;87.53;100364.00;5063665;28;20050;-60
2023/07/17 05:07:43;;;;;;;5.95;2.63;;;;;;;20.23;87.40;100361.09;5085716;28;20027;-60
2023/07/17 05:10:10;;;;;;;5.25;2.28;;;;;;;20.31;87.01;100364.16;5085994;28;20016;-60
2023/07/17 05:12:37;;;;;;;7.47;3.03;;;;;;;20.40;86.71;100359.97;5084915;28;20031;-60
2023/07/17 05:15:03;;;;;;;9.00;2.78;;;;;;;20.49;86.26;100362.91;5084924;28;20093;-60
2023/07/17 05:17:29;;;;;;;5.00;2.65;;;;;;;20.63;86.78;100365.56;5079954;28;20021;-60
2023/07/17 05:19:54;;;;;;;6.45;2.55;;;;;;;20.86;85.53;100366.69;5080648;28;20123;-60
2023/07/17 05:22:20;;;;;;;7.43;2.60;;;;;;;21.11;84.38;100372.16;5079112;28;20539;-60
2023/07/17 05:24:45;;;;;;;11.20;3.08;;;;;;;21.20;83.00;100374.22;5082241;28;20080;-60
2023/07/17 05:27:11;;;;;;;5.82;2.38;;;;;;;21.22;83.17;100377.66;5075819;28;20031;-62
2023/07/17 05:29:36;;;;;;;8.10;2.55;;;;;;;21.26;83.03;100381.03;5084173;28;20058;-62
2023/07/17 05:32:03;;;;;;;9.52;2.80;;;;;;;21.39;83.46;100381.88;5075108;28;20028;-63
2023/07/17 05:34:28;;;;;;;5.15;2.25;;;;;;;21.51;83.06;100392.72;5084273;28;20036;-63
2023/07/17 05:36:54;;;;;;;5.55;2.35;;;;;;;21.61;83.04;100393.81;5083466;28;20059;-62
2023/07/17 05:39:19;;;;;;;6.25;2.60;;;;;;;21.66;82.83;100401.59;5083975;28;20754;-62
2023/07/17 05:41:45;;;;;;;10.93;2.80;;;;;;;21.74;82.30;100399.19;5083216;28;20027;-62
2023/07/17 05:44:10;;;;;;;7.22;2.40;;;;;;;21.80;82.11;100406.91;5078260;28;20024;-62
2023/07/17 05:46:35;;;;;;;7.85;2.45;;;;;;;21.85;81.47;100404.72;5077998;28;20364;-62
2023/07/17 05:49:01;;;;;;;5.65;2.50;;;;;;;21.95;81.30;100413.91;5073402;28;20111;-62
2023/07/17 05:51:26;;;;;;;4.20;1.85;;;;;;;22.00;81.13;100419.88;5073679;28;20020;-62
2023/07/17 05:53:52;;;;;;;5.28;2.33;;;;;;;22.04;81.59;100422.22;5073725;28;20023;-62
2023/07/17 05:56:17;;;;;;;6.13;2.17;;;;;;;22.01;80.42;100419.75;5083708;28;20030;-62
2023/07/17 05:58:43;;;;;;;7.25;2.28;;;;;;;22.04;78.82;100418.69;5085580;28;20458;-62
2023/07/17 06:01:08;;;;;;;6.72;2.53;;;;;;;22.09;78.62;100411.06;5084984;28;20028;-62
2023/07/17 06:03:33;;;;;;;6.45;2.03;;;;;;;22.04;77.83;100408.69;5078263;28;20048;-62
2023/07/17 06:05:59;;;;;;;7.28;2.45;;;;;;;22.16;77.93;100406.91;5087308;28;21152;-63
2023/07/17 06:08:24;;;;;;;3.70;1.90;;;;;;;22.26;77.49;100413.38;5070973;28;20482;-62
2023/07/17 06:10:50;;;;;;;5.60;2.63;;;;;;;22.24;76.60;100407.22;5080378;28;20039;-63
2023/07/17 06:13:16;;;;;;;4.82;2.10;;;;;;;22.30;76.74;100409.47;5086624;28;20028;-62
2023/07/17 06:15:43;;;;;;;6.25;3.10;;;;;;;22.34;76.61;100400.13;5082312;28;20094;-62
2023/07/17 06:18:09;;;;;;;7.03;2.03;;;;;;;22.53;77.02;100411.38;5073353;28;20035;-63
2023/07/17 06:20:34;;;;;;;7.95;3.20;;;;;;;22.57;76.21;100418.28;5088185;28;20078;-62
2023/07/17 06:23:00;;;;;;;5.55;2.20;;;;;;;22.71;76.05;100414.53;5069009;28;20029;-63
2023/07/17 06:25:26;;;;;;;5.93;2.75;;;;;;;22.85;76.23;100412.47;5080720;28;20047;-63
2023/07/17 06:27:51;;;;;;;5.32;2.22;;;;;;;23.00;75.30;100416.72;5079685;28;20036;-62
2023/07/17 06:30:17;;;;;;;4.15;2.03;;;;;;;23.06;74.80;100421.69;5082727;28;20023;-62
2023/07/17 06:32:44;;;;;;;5.53;2.10;;;;;;;23.19;74.02;100422.47;5074154;28;20042;-62
2023/07/17 06:35:09;;;;;;;3.50;1.90;;;;;;;23.29;72.94;100422.66;5087605;28;20119;-62
2023/07/17 06:37:35;;;;;;;6.40;1.98;;;;;;;23.25;71.96;100421.13;5087561;28;20115;-63
2023/07/17 06:40:00;;;;;;;4.20;2.30;;;;;;;23.41;73.03;100424.38;5085800;28;20528;-63
2023/07/17 06:42:26;;;;;;;5.90;2.33;;;;;;;23.49;71.54;100426.50;5084831;28;20577;-63
2023/07/17 06:44:51;;;;;;;6.28;2.35;;;;;;;23.63;71.75;100428.97;5082345;28;20772;-63
2023/07/17 06:47:16;;;;;;;6.10;2.35;;;;;;;23.73;70.52;100432.69;5066140;28;20032;-63
2023/07/17 06:49:42;;;;;;;5.40;2.38;;;;;;;23.84;69.40;100435.44;5085658;28;20053;-63
2023/07/17 06:52:08;;;;;;;5.18;2.35;;;;;;;24.00;69.77;100434.06;5079317;28;20392;-63
2023/07/17 06:54:34;;;;;;;6.57;2.00;;;;;;;24.19;69.13;100437.03;5081653;28;20027;-63
2023/07/17 06:56:59;;;;;;;7.28;3.00;;;;;;;24.33;69.17;100439.47;5084761;28;20036;-63
2023/07/17 06:59:28;;;;;;;6.15;2.05;;;;;;;24.47;68.94;100431.06;5070810;28;20480;-62
2023/07/17 07:01:54;;;;;;;6.63;2.30;;;;;;;24.55;68.81;100433.13;5083232;28;20027;-62
2023/07/17 07:04:20;;;;;;;7.22;2.65;;;;;;;24.67;67.45;100441.19;5085105;28;20530;-63
2023/07/17 07:06:45;;;;;;;8.25;2.50;;;;;;;24.79;65.64;100441.13;5054575;28;20085;-63
2023/07/17 07:09:11;;;;;;;5.30;2.60;;;;;;;24.88;66.37;100449.38;5074641;28;20558;-63
2023/07/17 07:11:36;;;;;;;7.03;2.65;;;;;;;24.97;65.28;100451.31;5086790;28;20056;-63
2023/07/17 07:14:01;;;;;;;5.35;2.60;;;;;;;25.14;64.79;100448.00;5081784;28;20028;-62
2023/07/17 07:16:27;;;;;;;6.50;2.30;;;;;;;25.33;62.94;100464.50;5064678;28;20035;-62
2023/07/17 07:18:53;;;;;;;3.67;2.03;;;;;;;25.41;63.80;100458.41;5070806;28;20058;-63
2023/07/17 07:21:18;;;;;;;6.13;2.38;;;;;;;25.60;62.68;100466.72;5078176;28;20028;-63
2023/07/17 07:23:44;;;;;;;6.38;2.58;;;;;;;25.63;61.11;100471.91;5087504;28;20139;-62
2023/07/17 07:26:10;;;;;;;9.05;2.63;;;;;;;25.93;62.23;100466.47;5086718;28;20048;-62
2023/07/17 07:28:35;;;;;;;6.47;2.80;;;;;;;26.04;61.46;100471.88;5082058;28;20032;-63
2023/07/17 07:31:02;;;;;;;5.15;2.53;;;;;;;26.27;61.01;100472.53;5074701;28;20645;-63
2023/07/17 07:33:27;;;;;;;5.78;2.35;;;;;;;26.24;58.53;100475.53;5083198;28;20047;-62
2023/07/17 07:35:53;;;;;;;6.97;2.35;;;;;;;26.29;58.81;100471.41;5070384;28;20078;-63
2023/07/17 07:38:18;;;;;;;7.20;2.47;;;;;;;26.51;57.47;100475.75;5068069;28;20032;-63
2023/07/17 07:40:44;;;;;;;5.80;2.08;;;;;;;26.84;57.61;100478.16;5066496;28;20123;-62
2023/07/17 07:43:09;;;;;;;6.28;2.42;;;;;;;27.09;55.41;100472.13;5069678;28;20028;-63
2023/07/17 07:45:35;;;;;;;5.35;2.53;;;;;;;27.06;55.38;100483.38;5072823;28;20912;-62
2023/07/17 07:48:01;;;;;;;5.07;2.22;;;;;;;26.84;56.31;100473.56;5082772;28;20032;-62
2023/07/17 07:50:26;;;;;;;6.53;2.35;;;;;;;26.73;56.10;100481.03;5086025;28;20028;-62
2023/07/17 07:52:51;;;;;;;6.82;2.55;;;;;;;26.71;55.24;100483.03;5085019;28;20054;-62
2023/07/17 07:55:17;;;;;;;7.38;2.83;;;;;;;26.59;55.26;100489.59;5085752;28;20023;-62
2023/07/17 07:57:42;;;;;;;5.43;2.17;;;;;;;26.90;55.02;100496.72;5085627;28;20039;-62
2023/07/17 08:00:08;;;;;;;6.13;2.72;;;;;;;27.46;52.48;100492.31;5084842;28;20028;-62
2023/07/17 08:02:34;;;;;;;8.00;2.53;;;;;;;27.92;50.40;100489.66;5086268;28;20028;-62
2023/07/17 08:04:59;;;;;;;9.70;2.63;;;;;;;28.43;49.91;100489.16;5086803;28;20112;-62
2023/07/17 08:07:24;;;;;;;7.18;2.47;;;;;;;28.81;46.62;100483.47;5076772;28;20028;-63
2023/07/17 08:09:50;;;;;;;6.13;2.47;;;;;;;29.33;45.77;100500.97;5067421;28;20036;-62
2023/07/17 08:12:15;;;;;;;3.95;2.30;;;;;;;29.56;45.00;100491.22;5067145;28;20024;-63
2023/07/17 08:14:41;;;;;;;6.45;2.20;;;;;;;29.83;43.47;100490.28;5086405;28;20023;-63
2023/07/17 08:17:07;;;;;;;8.13;3.38;;;;;;;29.93;43.18;100493.75;5086952;28;20052;-63
2023/07/17 08:19:32;;;;;;;12.02;2.90;;;;;;;29.86;42.88;100487.19;5086788;28;20073;-63
2023/07/17 08:21:57;;;;;;;7.50;2.83;;;;;;;29.45;43.43;100491.50;5080596;28;20043;-63
2023/07/17 08:24:23;;;;;;;10.55;3.20;;;;;;;28.99;44.42;100498.06;5086892;28;20163;-63
2023/07/17 08:26:48;;;;;;;6.28;2.47;;;;;;;28.68;44.58;100493.94;5085239;28;20039;-63
2023/07/17 08:29:14;;;;;;;8.13;3.22;;;;;;;28.33;46.96;100494.69;5086533;28;20029;-63
2023/07/17 08:31:40;;;;;;;7.63;2.60;;;;;;;28.11;47.25;100497.78;5085115;28;20085;-62
2023/07/17 08:34:05;;;;;;;6.95;2.20;;;;;;;28.18;47.23;100495.31;5084449;28;20032;-63
2023/07/17 08:36:32;;;;;;;5.32;1.83;;;;;;;28.51;47.25;100493.88;5084946;28;20069;-62
2023/07/17 08:38:58;;;;;;;4.93;1.90;;;;;;;29.19;45.21;100496.06;5085274;28;20040;-63
2023/07/17 08:41:24;;;;;;;6.82;1.90;;;;;;;29.92;42.40;100498.38;5085234;28;20444;-63
2023/07/17 08:43:50;;;;;;;4.18;2.00;;;;;;;30.31;41.28;100493.34;5074072;28;20093;-63
2023/07/17 08:46:15;;;;;;;4.95;1.98;;;;;;;30.89;40.41;100488.75;5082628;28;20032;-63
2023/07/17 08:48:44;;;;;;;5.25;1.80;;;;;;;31.07;39.17;100483.16;5085424;28;20056;-63
2023/07/17 08:51:13;;;;;;;5.85;2.00;;;;;;;31.31;38.99;100488.66;5083972;28;20030;-64
2023/07/17 08:53:44;;;;;;;6.18;1.60;;;;;;;31.83;37.80;100476.28;5084909;28;20520;-63
2023/07/17 08:56:11;;;;;;;6.40;2.03;;;;;;;32.06;36.98;100486.44;5084447;28;20035;-63
2023/07/17 08:58:37;;;;;;;5.80;1.98;;;;;;;32.46;37.47;100474.44;5084983;28;20059;-64
2023/07/17 09:01:03;;;;;;;4.50;1.70;;;;;;;32.65;36.70;100476.78;5086146;28;20036;-64
2023/07/17 09:03:32;;;;;;;5.85;2.42;;;;;;;32.96;36.29;100474.91;5083014;28;20036;-64
2023/07/17 09:06:01;;;;;;;3.97;1.63;;;;;;;33.11;35.11;100484.09;5066068;28;20025;-64
2023/07/17 09:08:26;;;;;;;4.45;1.60;;;;;;;32.63;34.18;100472.47;5067799;28;20576;-63
2023/07/17 09:11:06;;;;;;;7.13;1.98;;;;;;;32.86;35.58;100477.00;5085947;28;20056;-63
2023/07/17 09:13:43;;;;;;;3.20;2.35;;;;;;;32.40;36.16;100482.56;5086107;28;20063;-64
2023/07/17 09:16:12;;;;;;;3.97;1.55;;;;;;;31.64;36.64;100485.78;5084421;28;20040;-63
2023/07/17 09:18:37;;;;;;;4.53;1.38;;;;;;;31.04;36.57;100475.25;5074711;28;20103;-63
2023/07/17 09:21:02;;;;;;;6.80;1.65;;;;;;;30.88;37.50;100465.94;5076417;28;20183;-63
2023/07/17 09:23:38;;;;;;;8.40;2.28;;;;;;;30.99;40.10;100469.41;5071804;28;20114;-63
2023/07/17 09:26:03;;;;;;;3.42;1.45;;;;;;;30.91;39.88;100469.38;5068579;28;20670;-63
2023/07/17 09:28:29;;;;;;;12.23;2.60;;;;;;;30.88;40.10;100470.56;5085603;28;20032;-63
2023/07/17 09:31:01;;;;;;;4.70;2.15;;;;;;;30.91;38.89;100470.22;5087754;28;20197;-63
2023/07/17 09:33:26;;;;;;;6.63;2.05;;;;;;;31.32;39.96;100471.19;5086177;28;20546;-63
2023/07/17 09:35:56;;;;;;;4.38;2.25;;;;;;;31.64;36.97;100469.28;5088566;28;20052;-63
2023/07/17 09:38:28;;;;;;;5.18;1.80;;;;;;;31.68;36.85;100456.03;5086696;28;20442;-64
2023/07/17 09:40:53;;;;;;;4.78;1.50;;;;;;;31.61;37.15;100463.25;5073316;28;20028;-64
2023/07/17 09:43:30;;;;;;;4.88;1.42;;;;;;;32.02;35.56;100460.31;5068520;28;20024;-64
2023/07/17 09:45:59;;;;;;;5.43;1.63;;;;;;;32.65;36.13;100453.88;5068228;28;20023;-64
2023/07/17 09:48:27;;;;;;;4.53;1.80;;;;;;;32.43;34.59;100466.53;5076000;28;20070;-64
2023/07/17 09:50:56;;;;;;;4.60;1.90;;;;;;;32.46;34.27;100455.16;5081565;28;20030;-64
2023/07/17 09:53:22;;;;;;;5.03;1.52;;;;;;;32.21;35.16;100461.78;5083240;28;20134;-64
2023/07/17 09:55:50;;;;;;;5.07;2.10;;;;;;;32.44;34.93;100461.91;5080179;28;20086;-64
2023/07/17 09:58:17;;;;;;;7.47;2.47;;;;;;;32.78;35.49;100459.66;5068974;28;20472;-64
2023/07/17 10:00:43;;;;;;;8.18;2.65;;;;;;;33.04;35.09;100455.56;5078326;28;20586;-65
2023/07/17 10:03:10;;;;;;;5.97;1.60;;;;;;;33.31;34.36;100454.97;5086667;28;20415;-64
2023/07/17 10:05:37;;;;;;;4.82;1.63;;;;;;;33.70;33.25;100463.13;5074717;28;20548;-64
2023/07/17 10:08:07;;;;;;;7.80;2.10;;;;;;;33.84;32.77;100462.28;5068980;28;20097;-65
2023/07/17 10:10:32;;;;;;;7.85;2.50;;;;;;;33.82;33.61;100461.63;5072769;28;20135;-65
2023/07/17 10:12:58;;;;;;;4.60;1.90;;;;;;;33.44;33.62;100462.69;5069320;28;20115;-64
2023/07/17 10:15:24;;;;;;;4.65;1.70;;;;;;;32.35;34.16;100457.41;5080467;28;20436;-64
2023/07/17 10:17:59;;;;;;;6.18;2.15;;;;;;;32.07;33.75;100459.75;5073330;28;20050;-64
2023/07/17 10:20:26;;;;;;;4.88;1.90;;;;;;;32.10;35.14;100459.41;5068721;28;20511;-64
2023/07/17 10:22:51;;;;;;;4.80;2.08;;;;;;;32.46;35.09;100459.81;5069517;28;20023;-64
2023/07/17 10:25:17;;;;;;;6.15;2.00;;;;;;;32.60;35.23;100457.19;5074539;28;20499;-64
2023/07/17 10:27:47;;;;;;;6.32;2.28;;;;;;;32.84;33.71;100456.16;5083471;28;20487;-64
2023/07/17 10:30:31;;;;;;;4.85;2.05;;;;;;;32.81;33.88;100453.78;5070260;28;20028;-64
2023/07/17 10:33:19;;;;;;;4.10;1.88;;;;;;;32.90;33.14;100450.81;5083554;28;20081;-64
2023/07/17 10:35:48;;;;;;;5.38;1.85;;;;;;;33.12;32.83;100447.22;5078286;28;20773;-64
2023/07/17 10:38:15;;;;;;;5.20;1.90;;;;;;;33.18;32.08;100446.47;5071931;28;20036;-65
2023/07/17 10:40:41;;;;;;;4.95;2.17;;;;;;;33.41;34.37;100442.84;5069800;28;20781;-64
2023/07/17 10:43:18;;;;;;;6.30;2.20;;;;;;;33.78;32.96;100442.84;5079207;28;20115;-64
2023/07/17 10:45:46;;;;;;;4.97;2.08;;;;;;;33.50;32.63;100442.63;5068593;28;20464;-65
2023/07/17 10:48:12;;;;;;;5.35;2.20;;;;;;;32.95;31.54;100439.25;5068824;28;20548;-64
2023/07/17 10:50:39;;;;;;;5.70;2.03;;;;;;;32.75;32.36;100427.78;5077174;28;20038;-64
2023/07/17 10:53:05;;;;;;;4.85;2.03;;;;;;;32.87;33.14;100434.59;5077598;28;20028;-64
2023/07/17 10:55:32;;;;;;;3.97;2.03;;;;;;;33.04;32.70;100430.75;5080480;28;20055;-65
2023/07/17 10:57:59;;;;;;;5.85;1.70;;;;;;;32.88;33.17;100428.03;5076805;28;20047;-64
2023/07/17 11:00:25;;;;;;;4.43;1.90;;;;;;;32.49;34.63;100429.16;5083994;28;20070;-64
2023/07/17 11:02:50;;;;;;;5.38;2.95;;;;;;;31.98;33.67;100434.16;5080458;28;20392;-65
2023/07/17 11:05:16;;;;;;;8.80;1.80;;;;;;;31.58;34.55;100428.69;5072303;28;20130;-65
2023/07/17 11:07:41;;;;;;;4.20;1.90;;;;;;;31.93;35.04;100420.06;5086255;28;20032;-65
2023/07/17 11:10:13;;;;;;;3.88;2.00;;;;;;;32.00;34.93;100431.22;5084530;28;20086;-65
2023/07/17 11:12:39;;;;;;;16.80;3.40;;;;;;;31.74;35.71;100419.56;5069134;28;20131;-65
2023/07/17 11:15:14;;;;;;;6.90;2.03;;;;;;;30.97;36.39;100430.22;5082035;28;20047;-65
2023/07/17 11:17:40;;;;;;;4.90;2.03;;;;;;;30.95;35.58;100421.28;5077381;28;20044;-65
2023/07/17 11:20:06;;;;;;;4.32;1.73;;;;;;;31.07;36.76;100411.69;5067535;28;20369;-65